sensor_id;sensor_type;location;lat;lon;timestamp;P1;durP1;ratioP1;P2;durP2;ratioP2
49472;SDS011;67434;50.956;6.918;2023-04-02T00:01:33;6.88;;;4.03;;
49472;SDS011;67434;50.956;6.918;2023-04-02T00:04:23;7.72;;;4.70;;
49472;SDS011;67434;50.956;6.918;2023-04-02T00:07:17;6.55;;;4.78;;
49472;SDS011;67434;50.956;6.918;2023-04-02T00:16:12;6.85;;;4.38;;
49472;SDS011;67434;50.956;6.918;2023-04-02T00:19:03;10.48;;;4.97;;
49472;SDS011;67434;50.956;6.918;2023-04-02T00:21:53;11.07;;;5.85;;
49472;SDS011;67434;50.956;6.918;2023-04-02T00:24:40;9.07;;;5.40;;
49472;SDS011;67434;50.956;6.918;2023-04-02T00:27:26;8.50;;;5.47;;
49472;SDS011;67434;50.956;6.918;2023-04-02T00:30:12;7.93;;;5.22;;
49472;SDS011;67434;50.956;6.918;2023-04-02T00:32:58;12.90;;;6.95;;
49472;SDS011;67434;50.956;6.918;2023-04-02T00:35:44;11.05;;;6.57;;
49472;SDS011;67434;50.956;6.918;2023-04-02T00:38:31;14.65;;;6.65;;
49472;SDS011;67434;50.956;6.918;2023-04-02T00:41:19;11.27;;;6.18;;
49472;SDS011;67434;50.956;6.918;2023-04-02T00:44:12;13.10;;;6.75;;
49472;SDS011;67434;50.956;6.918;2023-04-02T00:47:02;12.40;;;5.70;;
49472;SDS011;67434;50.956;6.918;2023-04-02T00:49:56;11.25;;;6.07;;
49472;SDS011;67434;50.956;6.918;2023-04-02T00:52:45;11.75;;;6.53;;
49472;SDS011;67434;50.956;6.918;2023-04-02T00:55:34;6.00;;;3.60;;
49472;SDS011;67434;50.956;6.918;2023-04-02T00:58:31;6.55;;;3.28;;
49472;SDS011;67434;50.956;6.918;2023-04-02T01:01:18;2.78;;;1.60;;
49472;SDS011;67434;50.956;6.918;2023-04-02T01:04:25;1.77;;;1.02;;
49472;SDS011;67434;50.956;6.918;2023-04-02T01:07:13;1.13;;;0.70;;
49472;SDS011;67434;50.956;6.918;2023-04-02T01:19:07;1.63;;;0.88;;
49472;SDS011;67434;50.956;6.918;2023-04-02T01:25:07;2.40;;;1.85;;
49472;SDS011;67434;50.956;6.918;2023-04-02T01:28:05;2.60;;;1.50;;
49472;SDS011;67434;50.956;6.918;2023-04-02T01:31:11;2.80;;;1.38;;
49472;SDS011;67434;50.956;6.918;2023-04-02T01:34:01;2.10;;;1.60;;
49472;SDS011;67434;50.956;6.918;2023-04-02T01:36:51;4.40;;;2.05;;
49472;SDS011;67434;50.956;6.918;2023-04-02T01:39:59;4.53;;;1.70;;
49472;SDS011;67434;50.956;6.918;2023-04-02T01:46:24;2.42;;;1.33;;
49472;SDS011;67434;50.956;6.918;2023-04-02T01:49:17;2.22;;;1.35;;
49472;SDS011;67434;50.956;6.918;2023-04-02T01:52:05;2.33;;;1.35;;
49472;SDS011;67434;50.956;6.918;2023-04-02T01:54:51;1.65;;;1.10;;
49472;SDS011;67434;50.956;6.918;2023-04-02T01:57:42;1.25;;;1.02;;
49472;SDS011;67434;50.956;6.918;2023-04-02T02:00:31;1.42;;;1.10;;
49472;SDS011;67434;50.956;6.918;2023-04-02T02:03:21;1.40;;;0.90;;
49472;SDS011;67434;50.956;6.918;2023-04-02T02:06:10;1.65;;;0.90;;
49472;SDS011;67434;50.956;6.918;2023-04-02T02:08:59;1.88;;;0.90;;
49472;SDS011;67434;50.956;6.918;2023-04-02T02:11:49;2.92;;;1.08;;
49472;SDS011;67434;50.956;6.918;2023-04-02T02:14:35;1.45;;;0.98;;
49472;SDS011;67434;50.956;6.918;2023-04-02T02:17:24;1.45;;;1.00;;
49472;SDS011;67434;50.956;6.918;2023-04-02T02:20:15;2.40;;;1.10;;
49472;SDS011;67434;50.956;6.918;2023-04-02T02:23:02;1.50;;;0.80;;
49472;SDS011;67434;50.956;6.918;2023-04-02T02:25:50;1.83;;;1.23;;
49472;SDS011;67434;50.956;6.918;2023-04-02T02:28:38;2.10;;;0.95;;
49472;SDS011;67434;50.956;6.918;2023-04-02T02:31:28;1.30;;;0.90;;
49472;SDS011;67434;50.956;6.918;2023-04-02T02:34:17;1.98;;;1.30;;
49472;SDS011;67434;50.956;6.918;2023-04-02T02:37:16;2.28;;;1.10;;
49472;SDS011;67434;50.956;6.918;2023-04-02T02:40:10;2.78;;;0.90;;
49472;SDS011;67434;50.956;6.918;2023-04-02T02:43:01;1.52;;;0.98;;
49472;SDS011;67434;50.956;6.918;2023-04-02T02:45:50;2.10;;;1.30;;
49472;SDS011;67434;50.956;6.918;2023-04-02T02:48:39;1.33;;;0.85;;
49472;SDS011;67434;50.956;6.918;2023-04-02T02:51:29;1.65;;;1.10;;
49472;SDS011;67434;50.956;6.918;2023-04-02T02:54:24;2.05;;;1.52;;
49472;SDS011;67434;50.956;6.918;2023-04-02T02:57:13;3.08;;;1.35;;
49472;SDS011;67434;50.956;6.918;2023-04-02T03:00:03;2.33;;;1.25;;
49472;SDS011;67434;50.956;6.918;2023-04-02T03:02:52;1.92;;;1.17;;
49472;SDS011;67434;50.956;6.918;2023-04-02T03:05:40;2.42;;;1.48;;
49472;SDS011;67434;50.956;6.918;2023-04-02T03:08:40;1.70;;;1.05;;
49472;SDS011;67434;50.956;6.918;2023-04-02T03:11:42;1.30;;;0.90;;
49472;SDS011;67434;50.956;6.918;2023-04-02T03:14:39;2.33;;;1.48;;
49472;SDS011;67434;50.956;6.918;2023-04-02T03:17:38;2.15;;;1.48;;
49472;SDS011;67434;50.956;6.918;2023-04-02T03:23:20;4.63;;;1.20;;
49472;SDS011;67434;50.956;6.918;2023-04-02T03:26:18;2.42;;;1.15;;
49472;SDS011;67434;50.956;6.918;2023-04-02T03:29:19;2.20;;;1.60;;
49472;SDS011;67434;50.956;6.918;2023-04-02T03:32:13;2.30;;;1.50;;
49472;SDS011;67434;50.956;6.918;2023-04-02T03:38:10;2.58;;;1.75;;
49472;SDS011;67434;50.956;6.918;2023-04-02T03:44:02;3.78;;;2.10;;
49472;SDS011;67434;50.956;6.918;2023-04-02T03:46:58;3.50;;;2.08;;
49472;SDS011;67434;50.956;6.918;2023-04-02T03:49:59;3.72;;;2.35;;
49472;SDS011;67434;50.956;6.918;2023-04-02T03:52:57;3.35;;;2.28;;
49472;SDS011;67434;50.956;6.918;2023-04-02T03:55:43;3.83;;;2.65;;
49472;SDS011;67434;50.956;6.918;2023-04-02T04:01:30;7.28;;;3.08;;
49472;SDS011;67434;50.956;6.918;2023-04-02T04:04:19;4.60;;;2.45;;
49472;SDS011;67434;50.956;6.918;2023-04-02T04:07:10;4.07;;;2.58;;
49472;SDS011;67434;50.956;6.918;2023-04-02T04:10:05;4.38;;;2.20;;
49472;SDS011;67434;50.956;6.918;2023-04-02T04:12:54;4.72;;;3.25;;
49472;SDS011;67434;50.956;6.918;2023-04-02T04:15:53;4.70;;;3.53;;
49472;SDS011;67434;50.956;6.918;2023-04-02T04:18:51;4.20;;;2.85;;
49472;SDS011;67434;50.956;6.918;2023-04-02T04:21:47;3.63;;;2.58;;
49472;SDS011;67434;50.956;6.918;2023-04-02T04:27:47;4.50;;;3.00;;
49472;SDS011;67434;50.956;6.918;2023-04-02T04:33:49;5.18;;;3.22;;
49472;SDS011;67434;50.956;6.918;2023-04-02T04:36:40;5.38;;;2.63;;
49472;SDS011;67434;50.956;6.918;2023-04-02T04:42:40;4.32;;;2.78;;
49472;SDS011;67434;50.956;6.918;2023-04-02T04:45:37;3.58;;;3.15;;
49472;SDS011;67434;50.956;6.918;2023-04-02T04:51:55;3.60;;;2.42;;
49472;SDS011;67434;50.956;6.918;2023-04-02T04:54:37;4.07;;;3.15;;
49472;SDS011;67434;50.956;6.918;2023-04-02T04:57:28;4.88;;;3.42;;
49472;SDS011;67434;50.956;6.918;2023-04-02T05:00:39;3.50;;;2.85;;
49472;SDS011;67434;50.956;6.918;2023-04-02T05:03:36;3.33;;;2.42;;
49472;SDS011;67434;50.956;6.918;2023-04-02T05:06:42;4.28;;;2.60;;
49472;SDS011;67434;50.956;6.918;2023-04-02T05:12:53;4.20;;;2.65;;
49472;SDS011;67434;50.956;6.918;2023-04-02T05:15:45;4.95;;;3.15;;
49472;SDS011;67434;50.956;6.918;2023-04-02T05:18:40;3.70;;;2.35;;
49472;SDS011;67434;50.956;6.918;2023-04-02T05:21:33;4.20;;;2.88;;
49472;SDS011;67434;50.956;6.918;2023-04-02T05:27:36;3.70;;;2.67;;
49472;SDS011;67434;50.956;6.918;2023-04-02T05:36:08;4.85;;;2.90;;
49472;SDS011;67434;50.956;6.918;2023-04-02T05:38:56;4.55;;;2.90;;
49472;SDS011;67434;50.956;6.918;2023-04-02T05:41:44;5.97;;;3.38;;
49472;SDS011;67434;50.956;6.918;2023-04-02T05:44:35;3.92;;;2.67;;
49472;SDS011;67434;50.956;6.918;2023-04-02T05:47:28;3.58;;;2.65;;
49472;SDS011;67434;50.956;6.918;2023-04-02T05:50:18;4.43;;;2.85;;
49472;SDS011;67434;50.956;6.918;2023-04-02T05:53:09;3.83;;;2.55;;
49472;SDS011;67434;50.956;6.918;2023-04-02T05:59:00;4.15;;;2.92;;
49472;SDS011;67434;50.956;6.918;2023-04-02T06:02:00;4.72;;;3.50;;
49472;SDS011;67434;50.956;6.918;2023-04-02T06:04:51;5.03;;;3.05;;
49472;SDS011;67434;50.956;6.918;2023-04-02T06:11:09;6.65;;;3.28;;
49472;SDS011;67434;50.956;6.918;2023-04-02T06:13:57;6.45;;;3.50;;
49472;SDS011;67434;50.956;6.918;2023-04-02T06:16:44;4.28;;;2.70;;
49472;SDS011;67434;50.956;6.918;2023-04-02T06:19:31;4.50;;;3.20;;
49472;SDS011;67434;50.956;6.918;2023-04-02T06:25:21;4.78;;;3.33;;
49472;SDS011;67434;50.956;6.918;2023-04-02T06:28:13;4.78;;;3.17;;
49472;SDS011;67434;50.956;6.918;2023-04-02T06:31:04;4.18;;;2.83;;
49472;SDS011;67434;50.956;6.918;2023-04-02T06:33:54;6.15;;;3.13;;
49472;SDS011;67434;50.956;6.918;2023-04-02T06:36:41;4.95;;;3.75;;
49472;SDS011;67434;50.956;6.918;2023-04-02T06:39:27;8.70;;;3.30;;
49472;SDS011;67434;50.956;6.918;2023-04-02T06:42:18;7.68;;;3.67;;
49472;SDS011;67434;50.956;6.918;2023-04-02T06:45:12;5.10;;;3.17;;
49472;SDS011;67434;50.956;6.918;2023-04-02T06:48:03;7.63;;;4.53;;
49472;SDS011;67434;50.956;6.918;2023-04-02T06:50:56;7.85;;;4.50;;
49472;SDS011;67434;50.956;6.918;2023-04-02T06:53:48;9.38;;;4.63;;
49472;SDS011;67434;50.956;6.918;2023-04-02T06:56:40;9.70;;;4.78;;
49472;SDS011;67434;50.956;6.918;2023-04-02T06:59:29;6.03;;;4.13;;
49472;SDS011;67434;50.956;6.918;2023-04-02T07:02:23;6.55;;;3.60;;
49472;SDS011;67434;50.956;6.918;2023-04-02T07:05:15;6.53;;;4.07;;
49472;SDS011;67434;50.956;6.918;2023-04-02T07:10:46;6.87;;;4.07;;
49472;SDS011;67434;50.956;6.918;2023-04-02T07:13:32;6.65;;;3.97;;
49472;SDS011;67434;50.956;6.918;2023-04-02T07:19:05;6.30;;;4.32;;
49472;SDS011;67434;50.956;6.918;2023-04-02T07:21:51;6.13;;;4.13;;
49472;SDS011;67434;50.956;6.918;2023-04-02T07:24:36;7.22;;;4.53;;
49472;SDS011;67434;50.956;6.918;2023-04-02T07:30:08;10.10;;;4.17;;
49472;SDS011;67434;50.956;6.918;2023-04-02T07:32:54;5.88;;;3.80;;
49472;SDS011;67434;50.956;6.918;2023-04-02T07:35:39;7.10;;;4.50;;
49472;SDS011;67434;50.956;6.918;2023-04-02T07:38:25;7.63;;;4.80;;
49472;SDS011;67434;50.956;6.918;2023-04-02T07:41:11;8.27;;;4.10;;
49472;SDS011;67434;50.956;6.918;2023-04-02T07:43:57;11.40;;;4.55;;
49472;SDS011;67434;50.956;6.918;2023-04-02T07:46:43;8.20;;;3.92;;
49472;SDS011;67434;50.956;6.918;2023-04-02T07:52:14;6.27;;;3.70;;
49472;SDS011;67434;50.956;6.918;2023-04-02T07:54:59;8.65;;;4.03;;
49472;SDS011;67434;50.956;6.918;2023-04-02T07:57:47;7.18;;;4.85;;
49472;SDS011;67434;50.956;6.918;2023-04-02T08:00:37;7.28;;;4.22;;
49472;SDS011;67434;50.956;6.918;2023-04-02T08:03:23;7.55;;;4.97;;
49472;SDS011;67434;50.956;6.918;2023-04-02T08:06:09;8.82;;;4.70;;
49472;SDS011;67434;50.956;6.918;2023-04-02T08:08:55;7.20;;;4.43;;
49472;SDS011;67434;50.956;6.918;2023-04-02T08:11:42;9.77;;;4.43;;
49472;SDS011;67434;50.956;6.918;2023-04-02T08:14:27;8.23;;;4.30;;
49472;SDS011;67434;50.956;6.918;2023-04-02T08:17:13;6.38;;;4.25;;
49472;SDS011;67434;50.956;6.918;2023-04-02T08:19:59;6.28;;;4.20;;
49472;SDS011;67434;50.956;6.918;2023-04-02T08:22:45;6.65;;;3.45;;
49472;SDS011;67434;50.956;6.918;2023-04-02T08:25:32;7.38;;;4.53;;
49472;SDS011;67434;50.956;6.918;2023-04-02T08:31:04;8.70;;;4.78;;
49472;SDS011;67434;50.956;6.918;2023-04-02T08:36:35;7.22;;;4.25;;
49472;SDS011;67434;50.956;6.918;2023-04-02T08:39:23;8.93;;;4.97;;
49472;SDS011;67434;50.956;6.918;2023-04-02T08:45:19;11.50;;;4.97;;
49472;SDS011;67434;50.956;6.918;2023-04-02T08:48:17;7.72;;;4.57;;
49472;SDS011;67434;50.956;6.918;2023-04-02T08:51:05;12.38;;;5.18;;
49472;SDS011;67434;50.956;6.918;2023-04-02T08:53:53;8.73;;;5.03;;
49472;SDS011;67434;50.956;6.918;2023-04-02T08:59:53;12.50;;;4.63;;
49472;SDS011;67434;50.956;6.918;2023-04-02T09:02:49;9.15;;;4.95;;
49472;SDS011;67434;50.956;6.918;2023-04-02T09:05:41;7.07;;;4.20;;
49472;SDS011;67434;50.956;6.918;2023-04-02T09:08:28;8.32;;;4.72;;
49472;SDS011;67434;50.956;6.918;2023-04-02T09:14:09;8.70;;;4.35;;
49472;SDS011;67434;50.956;6.918;2023-04-02T09:22:36;8.93;;;4.55;;
49472;SDS011;67434;50.956;6.918;2023-04-02T09:25:24;7.35;;;4.35;;
49472;SDS011;67434;50.956;6.918;2023-04-02T09:28:17;7.47;;;4.00;;
49472;SDS011;67434;50.956;6.918;2023-04-02T09:31:15;10.10;;;5.05;;
49472;SDS011;67434;50.956;6.918;2023-04-02T09:34:25;7.15;;;4.88;;
49472;SDS011;67434;50.956;6.918;2023-04-02T09:37:19;9.10;;;4.47;;
49472;SDS011;67434;50.956;6.918;2023-04-02T09:43:02;6.90;;;3.72;;
49472;SDS011;67434;50.956;6.918;2023-04-02T09:45:54;10.30;;;4.75;;
49472;SDS011;67434;50.956;6.918;2023-04-02T09:48:43;9.18;;;4.18;;
49472;SDS011;67434;50.956;6.918;2023-04-02T09:51:42;7.57;;;4.22;;
49472;SDS011;67434;50.956;6.918;2023-04-02T09:54:28;7.53;;;3.60;;
49472;SDS011;67434;50.956;6.918;2023-04-02T09:57:18;7.20;;;4.13;;
49472;SDS011;67434;50.956;6.918;2023-04-02T10:02:59;9.38;;;4.65;;
49472;SDS011;67434;50.956;6.918;2023-04-02T10:05:48;9.15;;;4.85;;
49472;SDS011;67434;50.956;6.918;2023-04-02T10:08:48;12.10;;;5.28;;
49472;SDS011;67434;50.956;6.918;2023-04-02T10:11:34;9.63;;;5.05;;
49472;SDS011;67434;50.956;6.918;2023-04-02T10:14:22;7.60;;;4.38;;
49472;SDS011;67434;50.956;6.918;2023-04-02T10:17:23;8.82;;;4.45;;
49472;SDS011;67434;50.956;6.918;2023-04-02T10:20:18;7.70;;;4.65;;
49472;SDS011;67434;50.956;6.918;2023-04-02T10:23:13;8.25;;;4.70;;
49472;SDS011;67434;50.956;6.918;2023-04-02T10:26:04;7.47;;;4.68;;
49472;SDS011;67434;50.956;6.918;2023-04-02T10:53:30;7.38;;;4.35;;
49472;SDS011;67434;50.956;6.918;2023-04-02T10:56:22;7.22;;;4.60;;
49472;SDS011;67434;50.956;6.918;2023-04-02T10:59:16;5.50;;;4.30;;
49472;SDS011;67434;50.956;6.918;2023-04-02T11:02:14;6.50;;;4.22;;
49472;SDS011;67434;50.956;6.918;2023-04-02T11:08:19;7.57;;;3.90;;
49472;SDS011;67434;50.956;6.918;2023-04-02T11:11:19;5.85;;;3.95;;
49472;SDS011;67434;50.956;6.918;2023-04-02T11:14:21;8.85;;;4.70;;
49472;SDS011;67434;50.956;6.918;2023-04-02T11:17:10;6.60;;;4.18;;
49472;SDS011;67434;50.956;6.918;2023-04-02T11:23:25;5.28;;;3.92;;
49472;SDS011;67434;50.956;6.918;2023-04-02T11:29:25;5.28;;;4.05;;
49472;SDS011;67434;50.956;6.918;2023-04-02T11:41:06;8.13;;;4.00;;
49472;SDS011;67434;50.956;6.918;2023-04-02T11:43:58;7.32;;;4.70;;
49472;SDS011;67434;50.956;6.918;2023-04-02T11:46:45;5.45;;;4.50;;
49472;SDS011;67434;50.956;6.918;2023-04-02T11:55:22;5.70;;;4.80;;
49472;SDS011;67434;50.956;6.918;2023-04-02T12:10:23;7.30;;;4.40;;
49472;SDS011;67434;50.956;6.918;2023-04-02T12:16:34;11.20;;;4.25;;
49472;SDS011;67434;50.956;6.918;2023-04-02T12:19:20;7.80;;;3.83;;
49472;SDS011;67434;50.956;6.918;2023-04-02T12:22:12;7.88;;;4.88;;
49472;SDS011;67434;50.956;6.918;2023-04-02T12:31:01;11.80;;;5.00;;
49472;SDS011;67434;50.956;6.918;2023-04-02T12:33:52;9.15;;;4.95;;
49472;SDS011;67434;50.956;6.918;2023-04-02T12:36:38;8.45;;;4.35;;
49472;SDS011;67434;50.956;6.918;2023-04-02T12:39:24;8.40;;;4.18;;
49472;SDS011;67434;50.956;6.918;2023-04-02T12:42:30;6.25;;;4.03;;
49472;SDS011;67434;50.956;6.918;2023-04-02T12:45:22;10.55;;;4.97;;
49472;SDS011;67434;50.956;6.918;2023-04-02T12:48:13;5.70;;;3.92;;
49472;SDS011;67434;50.956;6.918;2023-04-02T12:50:59;6.13;;;4.00;;
49472;SDS011;67434;50.956;6.918;2023-04-02T12:53:49;5.47;;;4.68;;
49472;SDS011;67434;50.956;6.918;2023-04-02T12:56:36;7.10;;;4.45;;
49472;SDS011;67434;50.956;6.918;2023-04-02T12:59:29;11.27;;;6.07;;
49472;SDS011;67434;50.956;6.918;2023-04-02T13:02:21;6.38;;;4.47;;
49472;SDS011;67434;50.956;6.918;2023-04-02T13:05:08;8.02;;;4.70;;
49472;SDS011;67434;50.956;6.918;2023-04-02T13:07:55;4.50;;;3.92;;
49472;SDS011;67434;50.956;6.918;2023-04-02T13:13:33;4.88;;;2.97;;
49472;SDS011;67434;50.956;6.918;2023-04-02T13:16:28;4.80;;;3.50;;
49472;SDS011;67434;50.956;6.918;2023-04-02T13:19:31;4.78;;;3.30;;
49472;SDS011;67434;50.956;6.918;2023-04-02T13:22:30;7.95;;;3.95;;
49472;SDS011;67434;50.956;6.918;2023-04-02T13:25:16;4.55;;;3.42;;
49472;SDS011;67434;50.956;6.918;2023-04-02T13:28:02;4.60;;;3.20;;
49472;SDS011;67434;50.956;6.918;2023-04-02T13:30:47;4.32;;;3.47;;
49472;SDS011;67434;50.956;6.918;2023-04-02T13:33:33;5.63;;;3.95;;
49472;SDS011;67434;50.956;6.918;2023-04-02T13:36:18;4.38;;;3.28;;
49472;SDS011;67434;50.956;6.918;2023-04-02T13:39:04;6.68;;;3.30;;
49472;SDS011;67434;50.956;6.918;2023-04-02T13:41:54;4.63;;;3.60;;
49472;SDS011;67434;50.956;6.918;2023-04-02T13:44:42;4.38;;;2.95;;
49472;SDS011;67434;50.956;6.918;2023-04-02T13:47:27;5.82;;;3.95;;
49472;SDS011;67434;50.956;6.918;2023-04-02T13:53:04;8.88;;;4.32;;
49472;SDS011;67434;50.956;6.918;2023-04-02T13:55:51;7.53;;;4.10;;
49472;SDS011;67434;50.956;6.918;2023-04-02T13:58:37;5.25;;;3.63;;
49472;SDS011;67434;50.956;6.918;2023-04-02T14:01:23;8.32;;;3.90;;
49472;SDS011;67434;50.956;6.918;2023-04-02T14:04:09;7.63;;;3.55;;
49472;SDS011;67434;50.956;6.918;2023-04-02T14:07:08;4.28;;;3.05;;
49472;SDS011;67434;50.956;6.918;2023-04-02T14:16:42;4.30;;;3.15;;
49472;SDS011;67434;50.956;6.918;2023-04-02T14:22:46;9.02;;;4.45;;
49472;SDS011;67434;50.956;6.918;2023-04-02T14:35:08;2.75;;;2.00;;
49472;SDS011;67434;50.956;6.918;2023-04-02T14:40:48;4.20;;;3.08;;
49472;SDS011;67434;50.956;6.918;2023-04-02T14:43:53;3.10;;;2.42;;
49472;SDS011;67434;50.956;6.918;2023-04-02T14:49:34;4.57;;;2.40;;
49472;SDS011;67434;50.956;6.918;2023-04-02T14:52:26;3.33;;;2.78;;
49472;SDS011;67434;50.956;6.918;2023-04-02T14:55:48;3.80;;;2.90;;
49472;SDS011;67434;50.956;6.918;2023-04-02T14:58:36;7.72;;;4.22;;
49472;SDS011;67434;50.956;6.918;2023-04-02T15:01:33;4.22;;;3.00;;
49472;SDS011;67434;50.956;6.918;2023-04-02T15:04:26;3.28;;;2.50;;
49472;SDS011;67434;50.956;6.918;2023-04-02T15:07:27;4.57;;;2.70;;
49472;SDS011;67434;50.956;6.918;2023-04-02T15:13:15;5.05;;;2.70;;
49472;SDS011;67434;50.956;6.918;2023-04-02T15:16:10;6.03;;;3.10;;
49472;SDS011;67434;50.956;6.918;2023-04-02T15:19:01;5.25;;;2.97;;
49472;SDS011;67434;50.956;6.918;2023-04-02T15:21:54;6.93;;;3.28;;
49472;SDS011;67434;50.956;6.918;2023-04-02T15:28:06;12.73;;;6.25;;
49472;SDS011;67434;50.956;6.918;2023-04-02T15:31:05;8.45;;;4.15;;
49472;SDS011;67434;50.956;6.918;2023-04-02T15:40:33;13.80;;;6.60;;
49472;SDS011;67434;50.956;6.918;2023-04-02T15:56:22;10.00;;;5.35;;
49472;SDS011;67434;50.956;6.918;2023-04-02T15:59:22;8.95;;;5.80;;
49472;SDS011;67434;50.956;6.918;2023-04-02T16:08:26;7.95;;;4.65;;
49472;SDS011;67434;50.956;6.918;2023-04-02T16:11:15;8.67;;;4.80;;
49472;SDS011;67434;50.956;6.918;2023-04-02T16:17:12;5.03;;;3.55;;
49472;SDS011;67434;50.956;6.918;2023-04-02T16:20:24;10.10;;;6.32;;
49472;SDS011;67434;50.956;6.918;2023-04-02T16:23:19;11.65;;;5.60;;
49472;SDS011;67434;50.956;6.918;2023-04-02T16:32:37;7.60;;;3.95;;
49472;SDS011;67434;50.956;6.918;2023-04-02T16:35:43;6.72;;;4.70;;
49472;SDS011;67434;50.956;6.918;2023-04-02T16:59:48;3.15;;;2.20;;
49472;SDS011;67434;50.956;6.918;2023-04-02T17:12:14;8.45;;;4.88;;
49472;SDS011;67434;50.956;6.918;2023-04-02T17:15:31;13.70;;;6.00;;
49472;SDS011;67434;50.956;6.918;2023-04-02T17:18:21;8.05;;;3.78;;
49472;SDS011;67434;50.956;6.918;2023-04-02T17:21:09;6.97;;;3.90;;
49472;SDS011;67434;50.956;6.918;2023-04-02T17:24:01;7.07;;;3.10;;
49472;SDS011;67434;50.956;6.918;2023-04-02T17:30:16;8.60;;;3.90;;
49472;SDS011;67434;50.956;6.918;2023-04-02T17:33:12;4.03;;;2.50;;
49472;SDS011;67434;50.956;6.918;2023-04-02T17:44:32;8.38;;;4.63;;
49472;SDS011;67434;50.956;6.918;2023-04-02T17:47:37;7.03;;;3.28;;
49472;SDS011;67434;50.956;6.918;2023-04-02T17:50:37;5.70;;;3.25;;
49472;SDS011;67434;50.956;6.918;2023-04-02T17:53:33;6.60;;;3.17;;
49472;SDS011;67434;50.956;6.918;2023-04-02T17:59:44;3.78;;;2.10;;
49472;SDS011;67434;50.956;6.918;2023-04-02T18:06:07;1.48;;;0.90;;
49472;SDS011;67434;50.956;6.918;2023-04-02T18:18:03;20.35;;;6.50;;
49472;SDS011;67434;50.956;6.918;2023-04-02T18:30:46;6.75;;;3.60;;
49472;SDS011;67434;50.956;6.918;2023-04-02T18:46:54;7.30;;;2.80;;
49472;SDS011;67434;50.956;6.918;2023-04-02T18:49:48;8.98;;;4.47;;
49472;SDS011;67434;50.956;6.918;2023-04-02T18:52:55;13.85;;;5.97;;
49472;SDS011;67434;50.956;6.918;2023-04-02T18:55:45;7.63;;;4.38;;
49472;SDS011;67434;50.956;6.918;2023-04-02T19:05:22;8.00;;;4.15;;
49472;SDS011;67434;50.956;6.918;2023-04-02T19:08:18;12.18;;;5.60;;
49472;SDS011;67434;50.956;6.918;2023-04-02T19:11:11;10.32;;;4.38;;
49472;SDS011;67434;50.956;6.918;2023-04-02T19:14:00;12.18;;;5.18;;
49472;SDS011;67434;50.956;6.918;2023-04-02T19:23:12;10.65;;;4.95;;
49472;SDS011;67434;50.956;6.918;2023-04-02T19:26:15;9.07;;;4.55;;
49472;SDS011;67434;50.956;6.918;2023-04-02T19:29:12;7.75;;;4.07;;
49472;SDS011;67434;50.956;6.918;2023-04-02T19:35:26;6.45;;;3.78;;
49472;SDS011;67434;50.956;6.918;2023-04-02T19:41:33;10.73;;;5.20;;
49472;SDS011;67434;50.956;6.918;2023-04-02T19:44:25;5.43;;;3.15;;
49472;SDS011;67434;50.956;6.918;2023-04-02T19:47:11;6.05;;;3.58;;
49472;SDS011;67434;50.956;6.918;2023-04-02T19:49:58;6.20;;;2.78;;
49472;SDS011;67434;50.956;6.918;2023-04-02T19:52:44;7.40;;;3.95;;
49472;SDS011;67434;50.956;6.918;2023-04-02T19:55:30;5.18;;;3.60;;
49472;SDS011;67434;50.956;6.918;2023-04-02T19:58:26;9.02;;;4.78;;
49472;SDS011;67434;50.956;6.918;2023-04-02T20:01:14;8.32;;;3.92;;
49472;SDS011;67434;50.956;6.918;2023-04-02T20:04:00;4.38;;;2.92;;
49472;SDS011;67434;50.956;6.918;2023-04-02T20:06:46;8.45;;;4.53;;
49472;SDS011;67434;50.956;6.918;2023-04-02T20:09:31;4.93;;;2.70;;
49472;SDS011;67434;50.956;6.918;2023-04-02T20:12:17;7.22;;;3.00;;
49472;SDS011;67434;50.956;6.918;2023-04-02T20:17:49;3.92;;;2.75;;
49472;SDS011;67434;50.956;6.918;2023-04-02T20:20:36;4.78;;;2.55;;
49472;SDS011;67434;50.956;6.918;2023-04-02T20:23:23;5.53;;;3.15;;
49472;SDS011;67434;50.956;6.918;2023-04-02T20:26:09;3.58;;;2.47;;
49472;SDS011;67434;50.956;6.918;2023-04-02T20:28:56;2.70;;;1.90;;
49472;SDS011;67434;50.956;6.918;2023-04-02T20:31:43;3.60;;;1.92;;
49472;SDS011;67434;50.956;6.918;2023-04-02T20:34:28;2.90;;;1.77;;
49472;SDS011;67434;50.956;6.918;2023-04-02T20:37:14;1.73;;;0.88;;
49472;SDS011;67434;50.956;6.918;2023-04-02T20:40:00;3.25;;;1.80;;
49472;SDS011;67434;50.956;6.918;2023-04-02T20:42:46;2.08;;;1.13;;
49472;SDS011;67434;50.956;6.918;2023-04-02T20:45:32;3.47;;;1.00;;
49472;SDS011;67434;50.956;6.918;2023-04-02T20:48:18;3.38;;;1.75;;
49472;SDS011;67434;50.956;6.918;2023-04-02T20:51:12;4.20;;;1.20;;
49472;SDS011;67434;50.956;6.918;2023-04-02T20:53:59;3.78;;;0.90;;
49472;SDS011;67434;50.956;6.918;2023-04-02T20:56:45;1.63;;;0.80;;
49472;SDS011;67434;50.956;6.918;2023-04-02T20:59:31;3.22;;;0.80;;
49472;SDS011;67434;50.956;6.918;2023-04-02T21:05:02;3.50;;;0.93;;
49472;SDS011;67434;50.956;6.918;2023-04-02T21:07:48;3.83;;;0.60;;
49472;SDS011;67434;50.956;6.918;2023-04-02T21:10:34;1.23;;;0.77;;
49472;SDS011;67434;50.956;6.918;2023-04-02T21:13:20;5.53;;;0.90;;
49472;SDS011;67434;50.956;6.918;2023-04-02T21:19:04;3.85;;;1.00;;
49472;SDS011;67434;50.956;6.918;2023-04-02T21:21:53;3.25;;;1.00;;
49472;SDS011;67434;50.956;6.918;2023-04-02T21:24:38;3.17;;;0.93;;
49472;SDS011;67434;50.956;6.918;2023-04-02T21:27:24;2.65;;;1.25;;
49472;SDS011;67434;50.956;6.918;2023-04-02T21:30:10;3.08;;;0.95;;
49472;SDS011;67434;50.956;6.918;2023-04-02T21:32:56;1.67;;;0.80;;
49472;SDS011;67434;50.956;6.918;2023-04-02T21:35:41;3.03;;;0.77;;
49472;SDS011;67434;50.956;6.918;2023-04-02T21:38:27;5.03;;;1.00;;
49472;SDS011;67434;50.956;6.918;2023-04-02T21:44:03;2.03;;;0.90;;
49472;SDS011;67434;50.956;6.918;2023-04-02T21:46:51;3.95;;;1.13;;
49472;SDS011;67434;50.956;6.918;2023-04-02T21:49:37;1.73;;;0.80;;
49472;SDS011;67434;50.956;6.918;2023-04-02T21:55:08;1.43;;;0.90;;
49472;SDS011;67434;50.956;6.918;2023-04-02T22:00:39;3.00;;;0.88;;
49472;SDS011;67434;50.956;6.918;2023-04-02T22:03:25;4.60;;;1.55;;
49472;SDS011;67434;50.956;6.918;2023-04-02T22:06:12;4.03;;;1.05;;
49472;SDS011;67434;50.956;6.918;2023-04-02T22:09:07;5.30;;;1.23;;
49472;SDS011;67434;50.956;6.918;2023-04-02T22:11:56;3.15;;;0.85;;
49472;SDS011;67434;50.956;6.918;2023-04-02T22:14:46;3.65;;;1.27;;
49472;SDS011;67434;50.956;6.918;2023-04-02T22:20:17;4.90;;;1.90;;
49472;SDS011;67434;50.956;6.918;2023-04-02T22:25:53;3.83;;;1.40;;
49472;SDS011;67434;50.956;6.918;2023-04-02T22:28:40;1.83;;;0.90;;
49472;SDS011;67434;50.956;6.918;2023-04-02T22:31:27;1.90;;;0.95;;
49472;SDS011;67434;50.956;6.918;2023-04-02T22:34:14;3.30;;;0.95;;
49472;SDS011;67434;50.956;6.918;2023-04-02T22:37:01;1.88;;;1.08;;
49472;SDS011;67434;50.956;6.918;2023-04-02T22:39:47;3.08;;;1.00;;
49472;SDS011;67434;50.956;6.918;2023-04-02T22:45:18;2.03;;;0.82;;
49472;SDS011;67434;50.956;6.918;2023-04-02T22:48:05;1.88;;;0.88;;
49472;SDS011;67434;50.956;6.918;2023-04-02T22:50:51;1.77;;;0.85;;
49472;SDS011;67434;50.956;6.918;2023-04-02T22:53:37;3.90;;;1.23;;
49472;SDS011;67434;50.956;6.918;2023-04-02T22:56:24;1.80;;;0.73;;
49472;SDS011;67434;50.956;6.918;2023-04-02T22:59:12;4.03;;;1.10;;
49472;SDS011;67434;50.956;6.918;2023-04-02T23:01:58;5.55;;;1.95;;
49472;SDS011;67434;50.956;6.918;2023-04-02T23:07:30;7.15;;;2.92;;
49472;SDS011;67434;50.956;6.918;2023-04-02T23:10:16;3.42;;;2.22;;
49472;SDS011;67434;50.956;6.918;2023-04-02T23:13:01;4.97;;;2.17;;
49472;SDS011;67434;50.956;6.918;2023-04-02T23:15:47;5.60;;;2.30;;
49472;SDS011;67434;50.956;6.918;2023-04-02T23:21:19;6.28;;;2.90;;
49472;SDS011;67434;50.956;6.918;2023-04-02T23:24:06;5.30;;;2.40;;
49472;SDS011;67434;50.956;6.918;2023-04-02T23:29:37;4.93;;;2.03;;